createdAt,value
2023-04-23T00:04:38.886Z,95142.00
2023-04-23T00:10:09.519Z,95134.00
2023-04-23T00:15:38.413Z,95129.00
2023-04-23T00:21:06.566Z,95131.00
2023-04-23T00:26:34.614Z,95127.00
2023-04-23T00:32:03.536Z,95124.00
2023-04-23T00:37:31.609Z,95121.00
2023-04-23T00:43:00.624Z,95113.00
2023-04-23T00:48:29.788Z,95112.00
2023-04-23T00:53:58.201Z,95104.00
2023-04-23T00:59:27.358Z,95114.00
2023-04-23T01:04:56.398Z,95108.00
2023-04-23T01:10:24.886Z,95105.00
2023-04-23T01:15:53.028Z,95104.00
2023-04-23T01:21:21.158Z,95103.00
2023-04-23T01:26:49.209Z,95100.00
2023-04-23T01:32:18.453Z,95094.00
2023-04-23T01:37:48.536Z,95102.00
2023-04-23T01:43:17.433Z,95094.00
2023-04-23T01:48:45.444Z,95095.00
2023-04-23T01:54:13.220Z,95110.00
2023-04-23T01:59:42.633Z,95106.00
2023-04-23T02:05:18.826Z,95101.00
2023-04-23T02:10:46.793Z,95109.00
2023-04-23T02:16:14.740Z,95105.00
2023-04-23T02:21:42.984Z,95095.00
2023-04-23T02:27:11.472Z,95099.00
2023-04-23T02:32:40.036Z,95093.00
2023-04-23T02:38:08.303Z,95101.00
2023-04-23T02:43:37.009Z,95103.00
2023-04-23T02:49:06.941Z,95102.00
2023-04-23T02:54:37.265Z,95100.00
2023-04-23T03:00:07.439Z,95116.00
2023-04-23T03:05:41.167Z,95111.00
2023-04-23T03:11:09.068Z,95104.00
2023-04-23T03:16:36.954Z,95116.00
2023-04-23T03:22:06.154Z,95113.00
2023-04-23T03:27:34.011Z,95123.00
2023-04-23T03:33:02.818Z,95113.00
2023-04-23T03:38:30.909Z,95124.00
2023-04-23T03:44:00.327Z,95122.00
2023-04-23T03:49:40.474Z,95123.00
2023-04-23T03:55:10.279Z,95126.00
2023-04-23T04:00:43.944Z,95128.00
2023-04-23T04:06:11.843Z,95131.00
2023-04-23T04:11:41.763Z,95130.00
2023-04-23T04:17:12.569Z,95128.00
2023-04-23T04:22:40.652Z,95135.00
2023-04-23T04:28:09.508Z,95145.00
2023-04-23T04:33:39.864Z,95146.00
2023-04-23T04:39:07.913Z,95160.00
2023-04-23T04:44:37.624Z,95162.00
2023-04-23T04:50:06.804Z,95172.00
2023-04-23T04:55:35.682Z,95181.00
2023-04-23T05:01:05.939Z,95186.00
2023-04-23T05:06:35.829Z,95190.00
2023-04-23T05:12:28.958Z,95183.00
2023-04-23T05:17:56.854Z,95188.00
2023-04-23T05:23:24.823Z,95197.00
2023-04-23T05:28:55.604Z,95201.00
2023-04-23T05:34:23.498Z,95217.00
2023-04-23T05:39:51.360Z,95214.00
2023-04-23T05:45:19.503Z,95224.00
2023-04-23T05:50:49.419Z,95227.00
2023-04-23T05:56:17.370Z,95227.00
2023-04-23T06:01:47.680Z,95229.00
2023-04-23T06:07:15.560Z,95228.00
2023-04-23T06:12:44.458Z,95237.00
2023-04-23T06:18:12.419Z,95239.00
2023-04-23T06:23:40.333Z,95239.00
2023-04-23T06:29:08.082Z,95239.00
2023-04-23T06:34:46.711Z,95239.00
2023-04-23T06:40:17.911Z,95245.00
2023-04-23T06:45:45.886Z,95256.00
2023-04-23T06:51:13.720Z,95246.00
2023-04-23T06:56:41.604Z,95236.00
2023-04-23T07:02:10.830Z,95236.00
2023-04-23T07:07:40.788Z,95230.00
2023-04-23T07:13:08.647Z,95225.00
2023-04-23T07:18:37.668Z,95220.00
2023-04-23T07:24:07.529Z,95229.00
2023-04-23T07:29:36.139Z,95220.00
2023-04-23T07:35:06.006Z,95228.00
2023-04-23T07:40:40.127Z,95237.00
2023-04-23T07:46:08.780Z,95228.00
2023-04-23T07:51:39.817Z,95221.00
2023-04-23T07:57:08.778Z,95223.00
2023-04-23T08:02:36.923Z,95227.00
2023-04-23T08:08:04.889Z,95232.00
2023-04-23T08:13:34.436Z,95229.00
2023-04-23T08:19:05.922Z,95230.00
2023-04-23T08:24:35.616Z,95216.00
2023-04-23T08:30:04.340Z,95214.00
2023-04-23T08:35:32.327Z,95207.00
2023-04-23T08:41:06.029Z,95197.00
2023-04-23T08:46:41.222Z,95202.00
2023-04-23T08:52:24.129Z,95198.00
2023-04-23T08:57:52.224Z,95202.00
2023-04-23T09:03:20.971Z,95190.00
2023-04-23T09:08:53.482Z,95206.00
2023-04-23T09:14:26.532Z,95194.00
2023-04-23T09:19:55.243Z,95188.00
2023-04-23T09:25:25.201Z,95190.00
2023-04-23T09:30:53.864Z,95180.00
2023-04-23T09:36:23.824Z,95174.00
2023-04-23T09:41:54.911Z,95169.00
2023-04-23T09:47:24.545Z,95172.00
2023-04-23T09:52:57.298Z,95171.00
2023-04-23T09:58:28.862Z,95164.00
2023-04-23T10:03:57.493Z,95157.00
2023-04-23T10:09:28.313Z,95153.00
2023-04-23T10:14:57.510Z,95152.00
2023-04-23T10:20:26.444Z,95143.00
2023-04-23T10:25:56.489Z,95143.00
2023-04-23T10:31:25.432Z,95138.00
2023-04-23T10:36:54.646Z,95131.00
2023-04-23T10:42:25.963Z,95131.00
2023-04-23T10:47:57.658Z,95129.00
2023-04-23T10:53:26.337Z,95107.00
2023-04-23T10:58:55.232Z,95108.00
2023-04-23T11:04:27.849Z,95104.00
2023-04-23T11:10:00.499Z,95093.00
2023-04-23T11:15:31.504Z,95073.00
2023-04-23T11:20:59.465Z,95053.00
2023-04-23T11:26:31.617Z,95050.00
2023-04-23T11:32:03.236Z,95052.00
2023-04-23T11:37:31.636Z,95051.00
2023-04-23T11:42:59.616Z,95046.00
2023-04-23T11:48:27.585Z,95039.00
2023-04-23T11:53:55.633Z,95040.00
2023-04-23T11:59:24.667Z,95025.00
2023-04-23T12:04:54.960Z,95016.00
2023-04-23T12:10:23.346Z,95004.00
2023-04-23T12:16:00.461Z,94999.00
2023-04-23T12:21:30.673Z,94985.00
2023-04-23T12:27:03.005Z,94985.00
2023-04-23T12:32:33.803Z,94978.00
2023-04-23T12:38:01.542Z,94977.00
2023-04-23T12:43:29.502Z,94970.00
2023-04-23T12:48:57.357Z,94952.00
2023-04-23T12:54:27.530Z,94953.00
2023-04-23T12:59:55.850Z,94947.00
2023-04-23T13:05:24.065Z,94935.00
2023-04-23T13:10:51.945Z,94919.00
2023-04-23T13:16:20.026Z,94917.00
2023-04-23T13:21:49.082Z,94911.00
2023-04-23T13:27:16.874Z,94899.00
2023-04-23T13:32:44.783Z,94877.00
2023-04-23T13:38:12.979Z,94870.00
2023-04-23T13:43:40.921Z,94857.00
2023-04-23T13:49:08.719Z,94852.00
2023-04-23T13:54:38.719Z,94842.00
2023-04-23T14:00:08.537Z,94836.00
2023-04-23T14:05:39.009Z,94833.00
2023-04-23T14:11:13.816Z,94832.00
2023-04-23T14:17:07.768Z,94824.00
2023-04-23T14:22:37.906Z,94820.00
2023-04-23T14:28:34.658Z,94822.00
2023-04-23T14:34:02.617Z,94829.00
2023-04-23T14:39:30.702Z,94814.00
2023-04-23T14:45:05.774Z,94799.00
2023-04-23T14:50:34.028Z,94794.00
2023-04-23T14:56:01.846Z,94789.00
2023-04-23T15:01:41.792Z,94774.00
2023-04-23T15:07:10.185Z,94779.00
2023-04-23T15:13:09.626Z,94784.00
2023-04-23T15:18:39.486Z,94779.00
2023-04-23T15:24:09.688Z,94770.00
2023-04-23T15:29:37.879Z,94810.00
2023-04-23T15:35:06.321Z,94806.00
2023-04-23T15:40:42.108Z,94779.00
2023-04-23T15:46:10.088Z,94759.00
2023-04-23T15:51:38.657Z,94744.00
2023-04-23T15:57:06.975Z,94755.00
2023-04-23T16:02:35.152Z,94748.00
2023-04-23T16:08:03.858Z,94750.00
2023-04-23T16:13:31.758Z,94749.00
2023-04-23T16:19:01.209Z,94750.00
2023-04-23T16:24:31.631Z,94744.00
2023-04-23T16:29:59.712Z,94727.00
2023-04-23T16:35:29.054Z,94725.00
2023-04-23T16:40:56.936Z,94722.00
2023-04-23T16:46:30.083Z,94719.00
2023-04-23T16:52:03.000Z,94719.00
2023-04-23T16:57:36.465Z,94725.00
2023-04-23T17:03:04.806Z,94719.00
2023-04-23T17:08:32.749Z,94703.00
2023-04-23T17:14:01.604Z,94703.00
2023-04-23T17:19:42.312Z,94691.00
2023-04-23T17:25:10.423Z,94675.00
2023-04-23T17:30:40.547Z,94664.00
2023-04-23T17:36:09.981Z,94664.00
2023-04-23T17:41:38.273Z,94661.00
2023-04-23T17:47:06.223Z,94673.00
2023-04-23T17:52:36.097Z,94679.00
2023-04-23T17:58:07.746Z,94672.00
2023-04-23T18:03:36.037Z,94659.00
2023-04-23T18:09:04.110Z,94657.00
2023-04-23T18:14:31.996Z,94665.00
2023-04-23T18:19:59.805Z,94669.00
2023-04-23T18:25:28.442Z,94667.00
2023-04-23T18:31:02.291Z,94658.00
2023-04-23T18:36:34.082Z,94651.00
2023-04-23T18:42:01.929Z,94637.00
2023-04-23T18:47:41.270Z,94636.00
2023-04-23T18:53:11.381Z,94696.00
2023-04-23T18:58:42.157Z,94740.00
2023-04-23T19:04:10.435Z,94788.00
2023-04-23T19:09:38.464Z,94806.00
2023-04-23T19:15:07.073Z,94824.00
2023-04-23T19:20:35.042Z,94828.00
2023-04-23T19:26:04.032Z,94829.00
2023-04-23T19:31:32.078Z,94825.00
2023-04-23T19:37:00.941Z,94829.00
2023-04-23T19:42:30.406Z,94833.00
2023-04-23T19:47:59.010Z,94849.00
2023-04-23T19:53:27.682Z,94854.00
2023-04-23T19:58:56.389Z,94861.00
2023-04-23T20:04:24.335Z,94862.00
2023-04-23T20:09:52.870Z,94856.00
2023-04-23T20:15:24.387Z,94856.00
2023-04-23T20:20:53.145Z,94859.00
2023-04-23T20:26:21.285Z,94846.00
2023-04-23T20:31:51.372Z,94838.00
2023-04-23T20:37:21.705Z,94830.00
2023-04-23T20:42:51.775Z,94875.00
2023-04-23T20:48:20.194Z,94875.00
2023-04-23T20:53:48.336Z,94870.00
2023-04-23T20:59:16.806Z,94864.00
2023-04-23T21:04:44.878Z,94870.00
2023-04-23T21:10:13.143Z,94869.00
2023-04-23T21:15:41.322Z,94862.00
2023-04-23T21:21:09.575Z,94866.00
2023-04-23T21:26:37.854Z,94861.00
2023-04-23T21:32:06.051Z,94856.00
2023-04-23T21:37:34.132Z,94870.00
2023-04-23T21:43:02.725Z,94863.00
2023-04-23T21:48:32.149Z,94856.00
2023-04-23T21:54:00.460Z,94871.00
2023-04-23T21:59:28.352Z,94862.00
2023-04-23T22:04:58.765Z,94860.00
2023-04-23T22:10:26.781Z,94859.00
2023-04-23T22:15:57.561Z,94849.00
2023-04-23T22:21:25.751Z,94848.00
2023-04-23T22:26:54.155Z,94860.00
2023-04-23T22:32:22.322Z,94860.00
2023-04-23T22:37:50.343Z,94856.00
2023-04-23T22:43:18.218Z,94852.00
2023-04-23T22:48:47.815Z,94856.00
2023-04-23T22:54:17.134Z,94863.00
2023-04-23T22:59:45.283Z,94857.00
2023-04-23T23:05:13.432Z,94854.00
2023-04-23T23:10:41.669Z,94861.00
2023-04-23T23:16:09.827Z,94851.00
2023-04-23T23:21:37.821Z,94844.00
2023-04-23T23:27:06.046Z,94838.00
2023-04-23T23:32:34.319Z,94849.00
2023-04-23T23:38:02.381Z,94838.00
2023-04-23T23:43:30.547Z,94835.00
2023-04-23T23:48:58.392Z,94830.00
2023-04-23T23:54:26.376Z,94824.00
2023-04-23T23:59:56.022Z,94807.00
